createdAt,value
2023-04-25T00:02:04.868Z,5.53
2023-04-25T00:04:34.255Z,4.77
2023-04-25T00:07:03.658Z,5.43
2023-04-25T00:09:31.358Z,5.10
2023-04-25T00:11:58.827Z,4.67
2023-04-25T00:14:26.265Z,4.33
2023-04-25T00:16:54.764Z,3.70
2023-04-25T00:19:22.216Z,4.40
2023-04-25T00:21:50.006Z,3.50
2023-04-25T00:24:18.879Z,4.17
2023-04-25T00:26:46.337Z,3.43
2023-04-25T00:29:13.770Z,3.03
2023-04-25T00:31:41.328Z,2.70
2023-04-25T00:34:09.198Z,3.50
2023-04-25T00:36:37.178Z,2.90
2023-04-25T00:39:05.527Z,2.60
2023-04-25T00:41:34.732Z,3.30
2023-04-25T00:44:02.833Z,3.60
2023-04-25T00:46:30.621Z,4.17
2023-04-25T00:48:58.109Z,4.13
2023-04-25T00:51:26.540Z,3.40
2023-04-25T00:53:54.217Z,3.77
2023-04-25T00:56:22.207Z,3.63
2023-04-25T00:58:51.862Z,4.00
2023-04-25T01:01:19.634Z,5.10
2023-04-25T01:03:48.486Z,4.60
2023-04-25T01:06:16.073Z,4.50
2023-04-25T01:08:43.683Z,4.20
2023-04-25T01:11:11.170Z,4.73
2023-04-25T01:13:38.619Z,4.50
2023-04-25T01:16:07.935Z,3.67
2023-04-25T01:18:35.503Z,3.80
2023-04-25T01:21:10.870Z,3.60
2023-04-25T01:23:38.525Z,3.47
2023-04-25T01:26:06.317Z,3.90
2023-04-25T01:28:35.402Z,4.10
2023-04-25T01:31:03.416Z,4.03
2023-04-25T01:33:31.146Z,5.13
2023-04-25T01:35:58.616Z,3.87
2023-04-25T01:38:27.424Z,4.20
2023-04-25T01:40:55.757Z,4.00
2023-04-25T01:43:23.628Z,4.30
2023-04-25T01:45:52.370Z,4.20
2023-04-25T01:48:20.031Z,4.50
2023-04-25T01:50:47.730Z,4.90
2023-04-25T01:53:16.221Z,4.60
2023-04-25T01:55:45.166Z,5.03
2023-04-25T01:58:13.867Z,5.23
2023-04-25T02:00:41.874Z,4.77
2023-04-25T02:03:10.095Z,5.27
2023-04-25T02:05:38.434Z,4.90
2023-04-25T02:08:07.353Z,4.83
2023-04-25T02:10:34.904Z,5.27
2023-04-25T02:13:03.933Z,4.60
2023-04-25T02:15:31.443Z,4.43
2023-04-25T02:18:00.973Z,5.30
2023-04-25T02:20:29.526Z,4.60
2023-04-25T02:22:56.992Z,4.90
2023-04-25T02:25:24.864Z,5.00
2023-04-25T02:27:52.475Z,5.00
2023-04-25T02:30:21.356Z,4.63
2023-04-25T02:32:48.933Z,4.90
2023-04-25T02:35:16.691Z,5.27
2023-04-25T02:37:44.278Z,4.80
2023-04-25T02:40:12.225Z,5.10
2023-04-25T02:42:39.674Z,5.53
2023-04-25T02:45:07.915Z,4.70
2023-04-25T02:47:36.757Z,5.53
2023-04-25T02:50:04.849Z,4.70
2023-04-25T02:52:32.368Z,6.03
2023-04-25T02:54:59.845Z,6.17
2023-04-25T02:57:27.339Z,6.23
2023-04-25T02:59:54.774Z,6.30
2023-04-25T03:02:22.286Z,6.30
2023-04-25T03:04:51.168Z,7.53
2023-04-25T03:07:18.632Z,6.63
2023-04-25T03:09:46.090Z,5.83
2023-04-25T03:12:13.547Z,5.33
2023-04-25T03:14:41.015Z,5.60
2023-04-25T03:17:08.489Z,7.60
2023-04-25T03:19:35.910Z,6.17
2023-04-25T03:22:04.737Z,6.40
2023-04-25T03:24:32.251Z,5.80
2023-04-25T03:26:59.706Z,4.97
2023-04-25T03:29:28.577Z,5.20
2023-04-25T03:31:56.138Z,5.60
2023-04-25T03:34:24.872Z,5.00
2023-04-25T03:36:52.410Z,5.60
2023-04-25T03:39:21.209Z,5.93
2023-04-25T03:41:48.693Z,6.10
2023-04-25T03:44:16.341Z,5.40
2023-04-25T03:46:43.810Z,5.17
2023-04-25T03:49:11.290Z,4.83
2023-04-25T03:51:38.730Z,5.50
2023-04-25T03:54:06.246Z,5.80
2023-04-25T03:56:35.066Z,5.60
2023-04-25T03:59:02.518Z,6.53
2023-04-25T04:01:30.183Z,5.83
2023-04-25T04:03:57.955Z,5.53
2023-04-25T04:06:26.427Z,6.03
2023-04-25T04:08:53.930Z,5.23
2023-04-25T04:11:21.475Z,5.77
2023-04-25T04:13:50.487Z,6.00
2023-04-25T04:16:18.169Z,5.97
2023-04-25T04:18:46.687Z,6.20
2023-04-25T04:21:14.161Z,5.73
2023-04-25T04:23:41.767Z,5.73
2023-04-25T04:26:09.528Z,5.53
2023-04-25T04:28:37.063Z,7.60
2023-04-25T04:31:05.942Z,6.57
2023-04-25T04:33:33.477Z,7.20
2023-04-25T04:36:01.814Z,5.60
2023-04-25T04:38:29.370Z,6.50
2023-04-25T04:40:56.926Z,5.90
2023-04-25T04:43:25.082Z,6.47
2023-04-25T04:45:53.231Z,5.53
2023-04-25T04:48:22.224Z,6.03
2023-04-25T04:50:49.691Z,6.60
2023-04-25T04:53:17.146Z,6.77
2023-04-25T04:55:44.653Z,6.00
2023-04-25T04:58:12.148Z,6.90
2023-04-25T05:00:39.589Z,6.67
2023-04-25T05:03:07.474Z,6.20
2023-04-25T05:05:36.418Z,5.33
2023-04-25T05:08:03.905Z,6.40
2023-04-25T05:10:31.371Z,6.53
2023-04-25T05:12:58.827Z,7.70
2023-04-25T05:15:26.457Z,4.77
2023-04-25T05:17:54.064Z,5.63
2023-04-25T05:20:21.584Z,4.90
2023-04-25T05:22:50.379Z,5.70
2023-04-25T05:25:18.047Z,5.20
2023-04-25T05:27:45.550Z,6.27
2023-04-25T05:30:13.413Z,5.50
2023-04-25T05:32:41.414Z,5.50
2023-04-25T05:35:09.915Z,6.13
2023-04-25T05:37:37.514Z,6.37
2023-04-25T05:40:08.480Z,4.70
2023-04-25T05:42:36.008Z,5.10
2023-04-25T05:45:05.391Z,4.40
2023-04-25T05:47:32.873Z,6.03
2023-04-25T05:50:00.317Z,4.67
2023-04-25T05:52:27.820Z,5.27
2023-04-25T05:54:55.334Z,3.80
2023-04-25T05:57:27.125Z,3.97
2023-04-25T05:59:54.823Z,3.93
2023-04-25T06:02:22.805Z,4.83
2023-04-25T06:04:52.172Z,4.10
2023-04-25T06:07:20.082Z,4.40
2023-04-25T06:09:47.904Z,4.57
2023-04-25T06:12:15.459Z,4.47
2023-04-25T06:14:44.294Z,4.23
2023-04-25T06:17:11.735Z,4.40
2023-04-25T06:19:39.208Z,3.87
2023-04-25T06:22:08.154Z,3.60
2023-04-25T06:24:35.672Z,4.40
2023-04-25T06:27:03.595Z,4.10
2023-04-25T06:29:31.038Z,3.63
2023-04-25T06:31:59.822Z,3.70
2023-04-25T06:34:27.272Z,3.70
2023-04-25T06:36:54.792Z,3.57
2023-04-25T06:39:24.163Z,3.10
2023-04-25T06:41:51.667Z,4.10
2023-04-25T06:44:19.106Z,2.80
2023-04-25T06:46:46.779Z,3.33
2023-04-25T06:49:15.600Z,3.50
2023-04-25T06:51:43.215Z,3.33
2023-04-25T06:54:10.705Z,3.17
2023-04-25T06:56:38.193Z,3.17
2023-04-25T06:59:05.651Z,3.40
2023-04-25T07:01:33.088Z,2.70
2023-04-25T07:04:00.727Z,3.17
2023-04-25T07:06:29.906Z,2.70
2023-04-25T07:08:57.357Z,2.87
2023-04-25T07:11:24.921Z,2.67
2023-04-25T07:13:52.402Z,2.77
2023-04-25T07:16:19.876Z,3.40
2023-04-25T07:18:47.327Z,2.80
2023-04-25T07:21:14.762Z,2.40
2023-04-25T07:23:43.603Z,2.57
2023-04-25T07:26:11.066Z,3.33
2023-04-25T07:28:38.562Z,3.00
2023-04-25T07:31:06.098Z,3.30
2023-04-25T07:33:33.555Z,2.97
2023-04-25T07:36:01.149Z,2.73
2023-04-25T07:38:28.781Z,2.57
2023-04-25T07:40:57.599Z,2.80
2023-04-25T07:43:25.265Z,2.20
2023-04-25T07:45:52.786Z,2.37
2023-04-25T07:48:20.756Z,2.53
2023-04-25T07:50:48.315Z,2.73
2023-04-25T07:53:16.715Z,2.30
2023-04-25T07:55:44.162Z,2.30
2023-04-25T07:58:13.657Z,2.60
2023-04-25T08:00:42.500Z,2.17
2023-04-25T08:03:11.796Z,2.20
2023-04-25T08:05:39.574Z,2.80
2023-04-25T08:08:07.718Z,2.07
2023-04-25T08:10:35.211Z,2.43
2023-04-25T08:13:03.387Z,2.00
2023-04-25T08:15:32.405Z,2.10
2023-04-25T08:18:00.484Z,2.17
2023-04-25T08:20:28.017Z,2.03
2023-04-25T08:22:55.532Z,2.10
2023-04-25T08:25:22.982Z,1.87
2023-04-25T08:27:50.447Z,2.10
2023-04-25T08:30:17.889Z,1.77
2023-04-25T08:32:46.734Z,2.30
2023-04-25T08:35:14.197Z,2.40
2023-04-25T08:37:42.311Z,1.80
2023-04-25T08:40:14.063Z,2.00
2023-04-25T08:42:43.070Z,1.67
2023-04-25T08:45:11.305Z,2.00
2023-04-25T08:47:40.584Z,2.40
2023-04-25T08:50:09.840Z,2.37
2023-04-25T08:52:39.430Z,2.50
2023-04-25T08:55:09.332Z,3.50
2023-04-25T08:57:37.290Z,2.90
2023-04-25T09:00:06.791Z,3.70
2023-04-25T09:02:34.573Z,2.60
2023-04-25T09:05:02.217Z,2.70
2023-04-25T09:07:31.048Z,3.23
2023-04-25T09:10:00.620Z,3.00
2023-04-25T09:12:29.010Z,3.37
2023-04-25T09:15:05.204Z,3.20
2023-04-25T09:17:32.748Z,3.80
2023-04-25T09:20:08.270Z,3.03
2023-04-25T09:22:38.347Z,2.83
2023-04-25T09:25:10.142Z,4.67
2023-04-25T09:27:37.726Z,4.37
2023-04-25T09:30:06.184Z,3.40
2023-04-25T09:32:33.753Z,2.77
2023-04-25T09:35:01.545Z,3.00
2023-04-25T09:37:30.564Z,3.87
2023-04-25T09:40:03.567Z,3.10
2023-04-25T09:42:32.724Z,3.40
2023-04-25T09:45:02.747Z,3.40
2023-04-25T09:47:30.372Z,3.33
2023-04-25T09:49:57.912Z,2.63
2023-04-25T09:52:26.768Z,3.23
2023-04-25T09:54:54.680Z,3.30
2023-04-25T09:57:24.644Z,5.03
2023-04-25T09:59:53.950Z,3.40
2023-04-25T10:02:25.993Z,3.80
2023-04-25T10:04:55.996Z,3.43
2023-04-25T10:07:26.782Z,3.20
2023-04-25T10:09:57.170Z,2.90
2023-04-25T10:12:25.971Z,3.50
2023-04-25T10:14:54.738Z,3.53
2023-04-25T10:17:22.895Z,3.47
2023-04-25T10:19:51.104Z,3.60
2023-04-25T10:22:20.767Z,2.97
2023-04-25T10:24:48.531Z,3.23
2023-04-25T10:27:16.437Z,3.13
2023-04-25T10:29:45.380Z,2.50
2023-04-25T10:32:12.846Z,3.10
2023-04-25T10:34:41.932Z,3.27
2023-04-25T10:37:12.602Z,3.20
2023-04-25T10:39:41.236Z,2.97
2023-04-25T10:42:09.601Z,2.93
2023-04-25T10:44:39.537Z,2.77
2023-04-25T10:47:09.331Z,2.93
2023-04-25T10:49:38.369Z,4.30
2023-04-25T10:52:14.903Z,2.40
2023-04-25T10:54:44.012Z,2.50
2023-04-25T10:57:30.601Z,2.67
2023-04-25T11:00:01.805Z,2.97
2023-04-25T11:02:31.705Z,3.30
2023-04-25T11:04:59.266Z,2.27
2023-04-25T11:07:33.995Z,2.57
2023-04-25T11:10:03.923Z,3.00
2023-04-25T11:12:32.116Z,2.80
2023-04-25T11:15:03.777Z,2.20
2023-04-25T11:17:32.736Z,2.63
2023-04-25T11:20:00.280Z,2.90
2023-04-25T11:22:28.958Z,2.50
2023-04-25T11:24:56.464Z,3.67
2023-04-25T11:27:25.670Z,2.70
2023-04-25T11:29:53.116Z,2.43
2023-04-25T11:32:23.283Z,2.83
2023-04-25T11:34:54.490Z,2.80
2023-04-25T11:37:22.054Z,3.23
2023-04-25T11:39:49.917Z,2.60
2023-04-25T11:42:17.624Z,2.50
2023-04-25T11:44:45.504Z,2.93
2023-04-25T11:47:13.013Z,2.57
2023-04-25T11:49:40.695Z,2.57
2023-04-25T11:52:09.672Z,2.53
2023-04-25T11:54:38.048Z,2.67
2023-04-25T11:57:05.878Z,2.30
2023-04-25T11:59:33.398Z,2.37
2023-04-25T12:02:10.582Z,2.40
2023-04-25T12:04:39.297Z,2.33
2023-04-25T12:07:06.935Z,2.83
2023-04-25T12:09:35.799Z,3.63
2023-04-25T12:12:04.622Z,2.43
2023-04-25T12:14:33.489Z,2.07
2023-04-25T12:17:01.872Z,2.83
2023-04-25T12:19:34.823Z,1.80
2023-04-25T12:22:03.916Z,2.87
2023-04-25T12:24:31.905Z,2.00
2023-04-25T12:27:03.827Z,2.33
2023-04-25T12:29:41.978Z,2.27
2023-04-25T12:32:16.613Z,2.37
2023-04-25T12:34:44.238Z,2.10
2023-04-25T12:37:12.301Z,2.13
2023-04-25T12:39:40.085Z,2.23
2023-04-25T12:42:12.388Z,1.93
2023-04-25T12:44:39.932Z,2.77
2023-04-25T12:47:07.629Z,2.80
2023-04-25T12:49:35.211Z,2.50
2023-04-25T12:52:02.759Z,3.63
2023-04-25T12:54:30.713Z,3.10
2023-04-25T12:56:58.420Z,2.63
2023-04-25T12:59:27.708Z,2.70
2023-04-25T13:01:55.230Z,2.53
2023-04-25T13:04:22.918Z,2.90
2023-04-25T13:06:50.515Z,2.47
2023-04-25T13:09:17.963Z,2.30
2023-04-25T13:11:46.037Z,2.37
2023-04-25T13:14:13.564Z,2.10
2023-04-25T13:16:42.686Z,3.00
2023-04-25T13:19:12.343Z,2.63
2023-04-25T13:21:40.152Z,2.67
2023-04-25T13:24:08.244Z,2.40
2023-04-25T13:26:35.762Z,2.80
2023-04-25T13:29:04.527Z,2.93
2023-04-25T13:31:33.125Z,2.50
2023-04-25T13:34:01.963Z,2.60
2023-04-25T13:36:29.859Z,2.43
2023-04-25T13:38:57.303Z,2.80
2023-04-25T13:41:24.746Z,2.90
2023-04-25T13:43:53.189Z,3.00
2023-04-25T13:46:40.800Z,3.40
2023-04-25T13:49:13.126Z,3.60
2023-04-25T13:51:40.883Z,2.97
2023-04-25T13:54:08.530Z,2.90
2023-04-25T13:56:36.236Z,2.30
2023-04-25T13:59:03.818Z,3.03
2023-04-25T14:01:32.046Z,2.00
2023-04-25T14:03:59.625Z,2.20
2023-04-25T14:06:29.256Z,2.47
2023-04-25T14:08:57.319Z,1.80
2023-04-25T14:11:24.773Z,1.93
2023-04-25T14:13:52.604Z,2.00
2023-04-25T14:16:20.557Z,3.33
2023-04-25T14:18:48.051Z,1.80
2023-04-25T14:21:15.610Z,1.60
2023-04-25T14:23:44.391Z,1.70
2023-04-25T14:26:13.506Z,1.80
2023-04-25T14:28:41.164Z,1.97
2023-04-25T14:31:08.716Z,2.00
2023-04-25T14:33:36.300Z,1.83
2023-04-25T14:36:04.099Z,1.60
2023-04-25T14:38:31.579Z,1.93
2023-04-25T14:41:00.635Z,1.63
2023-04-25T14:43:28.130Z,1.70
2023-04-25T14:45:58.243Z,1.80
2023-04-25T14:48:26.380Z,1.70
2023-04-25T14:50:53.924Z,1.97
2023-04-25T14:53:21.447Z,1.80
2023-04-25T14:55:49.680Z,2.37
2023-04-25T14:58:18.576Z,1.93
2023-04-25T15:00:46.437Z,2.17
2023-04-25T15:03:14.503Z,2.20
2023-04-25T15:05:42.555Z,1.50
2023-04-25T15:08:11.262Z,2.37
2023-04-25T15:10:38.943Z,1.60
2023-04-25T15:13:06.508Z,2.07
2023-04-25T15:15:35.639Z,2.00
2023-04-25T15:18:03.133Z,2.07
2023-04-25T15:20:30.615Z,2.33
2023-04-25T15:22:58.442Z,1.70
2023-04-25T15:25:26.268Z,1.67
2023-04-25T15:27:54.438Z,1.87
2023-04-25T15:30:22.055Z,1.67
2023-04-25T15:32:51.113Z,2.00
2023-04-25T15:35:18.600Z,1.70
2023-04-25T15:37:46.200Z,1.70
2023-04-25T15:40:17.496Z,1.93
2023-04-25T15:42:47.742Z,1.70
2023-04-25T15:45:17.575Z,1.83
2023-04-25T15:47:45.879Z,1.20
2023-04-25T15:50:15.899Z,1.93
2023-04-25T15:52:43.820Z,1.50
2023-04-25T15:55:12.794Z,1.33
2023-04-25T15:57:41.864Z,1.50
2023-04-25T16:00:13.003Z,1.47
2023-04-25T16:02:41.483Z,1.33
2023-04-25T16:05:11.097Z,1.30
2023-04-25T16:07:40.855Z,1.70
2023-04-25T16:10:09.446Z,1.60
2023-04-25T16:12:37.444Z,1.30
2023-04-25T16:15:05.282Z,1.30
2023-04-25T16:17:33.306Z,1.60
2023-04-25T16:20:01.817Z,1.60
2023-04-25T16:22:29.424Z,2.13
2023-04-25T16:24:58.209Z,2.20
2023-04-25T16:27:25.710Z,1.37
2023-04-25T16:29:53.154Z,2.00
2023-04-25T16:32:20.712Z,1.63
2023-04-25T16:34:48.160Z,2.73
2023-04-25T16:37:15.615Z,1.73
2023-04-25T16:39:43.088Z,1.20
2023-04-25T16:42:11.921Z,1.77
2023-04-25T16:44:39.389Z,1.30
2023-04-25T16:47:06.896Z,1.50
2023-04-25T16:49:34.518Z,1.40
2023-04-25T16:52:02.031Z,1.73
2023-04-25T16:54:29.468Z,1.97
2023-04-25T16:56:56.902Z,1.97
2023-04-25T16:59:25.675Z,2.07
2023-04-25T17:01:53.235Z,1.40
2023-04-25T17:04:20.860Z,2.60
2023-04-25T17:06:48.572Z,1.60
2023-04-25T17:09:16.056Z,1.30
2023-04-25T17:11:43.654Z,1.40
2023-04-25T17:14:11.101Z,1.27
2023-04-25T17:16:40.562Z,1.67
2023-04-25T17:19:08.506Z,1.50
2023-04-25T17:21:36.009Z,1.67
2023-04-25T17:24:06.002Z,1.53
2023-04-25T17:26:33.511Z,1.37
2023-04-25T17:29:00.960Z,1.60
2023-04-25T17:31:28.574Z,1.90
2023-04-25T17:33:57.590Z,1.30
2023-04-25T17:36:25.171Z,1.23
2023-04-25T17:38:52.908Z,1.37
2023-04-25T17:41:20.930Z,1.23
2023-04-25T17:43:48.408Z,1.40
2023-04-25T17:46:15.951Z,1.60
2023-04-25T17:48:43.438Z,1.67
2023-04-25T17:51:12.250Z,1.50
2023-04-25T17:53:39.671Z,1.60
2023-04-25T17:56:19.391Z,1.30
2023-04-25T17:58:54.116Z,1.50
2023-04-25T18:01:22.070Z,1.60
2023-04-25T18:03:50.310Z,1.37
2023-04-25T18:06:19.482Z,1.10
2023-04-25T18:08:47.283Z,1.27
2023-04-25T18:11:15.082Z,1.63
2023-04-25T18:13:43.111Z,1.40
2023-04-25T18:16:10.756Z,1.93
2023-04-25T18:18:38.197Z,1.70
2023-04-25T18:21:07.727Z,1.40
2023-04-25T18:23:37.738Z,1.07
2023-04-25T18:26:06.028Z,1.20
2023-04-25T18:28:34.240Z,1.33
2023-04-25T18:31:02.002Z,1.00
2023-04-25T18:33:29.505Z,1.50
2023-04-25T18:35:59.815Z,1.73
2023-04-25T18:41:14.975Z,2.40
2023-04-25T18:43:46.873Z,1.80
2023-04-25T18:46:14.360Z,1.60
2023-04-25T18:48:42.834Z,1.30
2023-04-25T18:51:10.549Z,1.33
2023-04-25T18:53:38.286Z,1.57
2023-04-25T18:56:07.452Z,1.43
2023-04-25T18:58:34.935Z,2.43
2023-04-25T19:01:03.656Z,1.10
2023-04-25T19:03:31.550Z,1.00
2023-04-25T19:05:59.237Z,1.60
2023-04-25T19:08:27.476Z,1.40
2023-04-25T19:10:55.397Z,1.00
2023-04-25T19:13:24.390Z,1.60
2023-04-25T19:15:51.858Z,1.10
2023-04-25T19:18:19.460Z,1.43
2023-04-25T19:20:47.175Z,1.10
2023-04-25T19:23:14.670Z,1.30
2023-04-25T19:25:42.601Z,1.60
2023-04-25T19:28:12.765Z,1.40
2023-04-25T19:30:41.734Z,1.20
2023-04-25T19:33:09.351Z,1.33
2023-04-25T19:35:36.942Z,1.90
2023-04-25T19:38:04.564Z,1.40
2023-04-25T19:40:32.033Z,1.30
2023-04-25T19:42:59.578Z,1.50
2023-04-25T19:45:27.106Z,1.43
2023-04-25T19:47:56.031Z,1.30
2023-04-25T19:50:23.700Z,1.30
2023-04-25T19:52:51.966Z,1.30
2023-04-25T19:55:19.526Z,1.60
2023-04-25T19:57:47.474Z,1.70
2023-04-25T20:00:19.223Z,1.20
2023-04-25T20:02:47.799Z,3.20
2023-04-25T20:05:17.776Z,1.43
2023-04-25T20:07:45.478Z,1.63
2023-04-25T20:10:13.992Z,1.57
2023-04-25T20:12:41.544Z,1.23
2023-04-25T20:15:09.715Z,1.60
2023-04-25T20:17:37.232Z,1.43
2023-04-25T20:20:06.352Z,1.80
2023-04-25T20:22:38.595Z,2.20
2023-04-25T20:25:08.199Z,1.57
2023-04-25T20:27:37.742Z,2.17
2023-04-25T20:30:07.922Z,2.40
2023-04-25T20:32:35.849Z,2.30
2023-04-25T20:35:03.964Z,2.43
2023-04-25T20:37:32.461Z,2.07
2023-04-25T20:40:01.767Z,2.10
2023-04-25T20:42:29.258Z,2.07
2023-04-25T20:44:56.805Z,1.20
2023-04-25T20:47:24.617Z,2.20
2023-04-25T20:49:52.238Z,1.77
2023-04-25T20:52:19.744Z,1.80
2023-04-25T20:54:50.150Z,1.53
2023-04-25T20:57:18.980Z,2.00
2023-04-25T20:59:47.138Z,1.30
2023-04-25T21:02:15.907Z,1.30
2023-04-25T21:04:44.008Z,1.73
2023-04-25T21:07:12.985Z,2.13
2023-04-25T21:09:40.677Z,2.07
2023-04-25T21:12:08.561Z,1.97
2023-04-25T21:14:37.341Z,2.57
2023-04-25T21:17:05.114Z,2.40
2023-04-25T21:19:33.023Z,2.53
2023-04-25T21:22:01.676Z,2.07
2023-04-25T21:24:31.021Z,2.50
2023-04-25T21:26:58.494Z,2.20
2023-04-25T21:29:26.013Z,2.30
2023-04-25T21:31:54.848Z,1.53
2023-04-25T21:34:22.622Z,2.43
2023-04-25T21:36:50.084Z,2.00
2023-04-25T21:39:17.563Z,2.67
2023-04-25T21:41:45.033Z,1.60
2023-04-25T21:44:14.399Z,1.80
2023-04-25T21:46:42.003Z,1.50
2023-04-25T21:49:11.443Z,1.73
2023-04-25T21:51:38.961Z,1.43
2023-04-25T21:54:09.640Z,1.83
2023-04-25T21:56:37.138Z,2.20
2023-04-25T21:59:04.620Z,2.00
2023-04-25T22:01:32.195Z,1.93
2023-04-25T22:04:00.002Z,1.50
2023-04-25T22:06:29.521Z,1.27
2023-04-25T22:08:56.980Z,1.70
2023-04-25T22:11:26.390Z,2.07
2023-04-25T22:13:54.411Z,2.33
2023-04-25T22:16:21.966Z,1.63
2023-04-25T22:18:51.234Z,2.33
2023-04-25T22:21:18.956Z,1.50
2023-04-25T22:23:47.752Z,1.90
2023-04-25T22:26:15.188Z,1.83
2023-04-25T22:28:42.624Z,1.67
2023-04-25T22:31:10.556Z,2.00
2023-04-25T22:33:38.096Z,2.23
2023-04-25T22:36:05.844Z,1.97
2023-04-25T22:38:33.308Z,1.67
2023-04-25T22:41:02.145Z,2.40
2023-04-25T22:43:29.834Z,2.30
2023-04-25T22:45:58.677Z,1.67
2023-04-25T22:48:26.221Z,1.60
2023-04-25T22:51:02.510Z,1.90
2023-04-25T22:53:31.959Z,1.70
2023-04-25T22:55:59.418Z,2.03
2023-04-25T22:58:28.613Z,1.87
2023-04-25T23:00:56.101Z,1.73
2023-04-25T23:03:23.684Z,1.93
2023-04-25T23:05:51.471Z,1.83
2023-04-25T23:08:19.042Z,1.53
2023-04-25T23:10:46.590Z,1.60
2023-04-25T23:13:14.066Z,1.50
2023-04-25T23:15:42.848Z,1.90
2023-04-25T23:18:10.355Z,2.17
2023-04-25T23:20:37.905Z,1.73
2023-04-25T23:23:05.924Z,1.40
2023-04-25T23:25:33.498Z,1.87
2023-04-25T23:28:00.938Z,1.57
2023-04-25T23:30:28.379Z,1.57
2023-04-25T23:32:57.174Z,2.07
2023-04-25T23:35:24.705Z,1.97
2023-04-25T23:37:52.173Z,1.50
2023-04-25T23:40:19.631Z,2.10
2023-04-25T23:42:47.432Z,2.10
2023-04-25T23:45:16.442Z,2.70
2023-04-25T23:47:44.139Z,2.33
2023-04-25T23:50:13.396Z,1.50
2023-04-25T23:52:40.998Z,2.50
2023-04-25T23:55:09.741Z,2.00
2023-04-25T23:57:37.311Z,2.00
